Latest Weather Observations for Roxby Downs

IDS60801

Issued at 7:04 pm CDT Friday 19 December 2014 (issued every 30 minutes, with the page automatically refreshed every 10 minutes)

About weather observations | Map of weather stations | Latest weather observations for SA | Other Formats
Station Details ID: 016096 Name: OLYMPIC DAM AERODROME Lat: -30.48 Lon: 136.88 Height: 98.5 m
Data from the previous 72 hours. | See also: Recent months at Roxby Downs
Date/Time
CDT
Temp
°C
App
Temp
°C
Dew
Point
Rel
Hum
%
Delta-T
°C
Wind Press
QNH
hPa
Press
MSL
hPa
Rain
since 9 am
mm
Dir
 
Spd
km/h
Gust
km/h
Spd
kts
Gust
kts
19/07:00pm 32.2 26.3 -2.0 11 16.1 S 19 28 10 15 1014.8 1014.3 0.0
19/06:30pm 31.9 26.0 -2.2 11 16.0 SSE 19 28 10 15 1014.7 1014.2 0.0
19/06:00pm 32.4 26.9 -1.8 11 16.2 S 17 26 9 14 1014.7 1014.2 0.0
19/05:30pm 32.5 26.8 -0.5 12 16.0 SSW 19 30 10 16 1014.9 1014.4 0.0
19/05:00pm 31.7 26.1 -0.1 13 15.4 SSW 19 30 10 16 1015.1 1014.6 0.0
19/04:30pm 31.3 26.2 0.6 14 15.0 S 17 28 9 15 1015.4 1014.9 0.0
19/04:00pm 31.4 26.7 0.7 14 15.0 S 15 30 8 16 1015.7 1015.2 0.0
19/03:30pm 31.1 25.8 -0.5 13 15.1 SW 17 28 9 15 1016.5 1015.9 0.0
19/03:00pm 30.3 25.2 0.8 15 14.4 SW 17 28 9 15 1016.8 1016.2 0.0
19/02:30pm 30.2 25.2 1.6 16 14.1 SW 17 30 9 16 1017.2 1016.6 0.0
19/02:00pm 29.3 24.6 0.9 16 13.7 SW 15 22 8 12 1017.8 1017.2 0.0
19/01:30pm 28.7 24.6 2.1 18 13.1 WSW 13 24 7 13 1018.1 1017.5 0.0
19/01:00pm 27.6 23.9 2.6 20 12.3 SE 11 20 6 11 1018.5 1018.0 0.0
19/12:30pm 27.2 23.7 3.7 22 11.8 ESE 11 22 6 12 1018.7 1018.2 0.0
19/12:00pm 26.0 22.2 3.9 24 11.0 SSE 13 20 7 11 1018.8 1018.3 0.0
19/11:30am 24.8 20.7 4.5 27 10.2 SSE 15 24 8 13 1018.9 1018.4 0.0
19/11:00am 24.5 20.7 5.8 30 9.6 SSE 15 26 8 14 1019.0 1018.5 0.0
19/10:30am 22.9 18.7 5.8 33 8.7 SE 17 24 9 13 1019.0 1018.5 0.0
19/10:00am 22.3 17.3 6.5 36 8.1 SE 22 32 12 17 1019.1 1018.6 0.0
19/09:30am 21.5 16.7 7.3 40 7.3 SSE 22 28 12 15 1019.2 1018.7 0.0
19/09:00am 20.4 15.0 8.1 45 6.4 S 26 32 14 17 1018.9 1018.4 0.0
19/08:30am 19.4 13.9 9.3 52 5.3 SSE 28 35 15 19 1018.5 1018.0 0.0
19/08:00am 18.5 12.7 9.6 56 4.7 SSE 30 39 16 21 1018.1 1017.5 0.0
19/07:30am 17.7 12.3 9.6 59 4.3 SSE 28 39 15 21 1017.9 1017.3 0.0
19/07:00am 17.3 12.8 10.0 62 3.9 SSE 24 33 13 18 1017.3 1016.7 0.0
19/06:30am 16.9 12.7 9.8 63 3.7 SSE 22 35 12 19 1017.1 1016.5 0.0
19/06:00am 17.0 13.2 9.9 63 3.7 SSE 20 28 11 15 1016.8 1016.2 0.0
19/05:30am 17.3 13.2 10.0 62 3.9 SSE 22 32 12 17 1016.4 1015.8 0.0
19/05:00am 17.6 13.5 10.2 62 3.9 SSE 22 30 12 16 1016.2 1015.6 0.0
19/04:30am 17.9 12.3 10.0 60 4.2 SSE 30 43 16 23 1016.0 1015.4 0.0
19/04:00am 18.2 13.5 10.6 61 4.1 SSE 26 35 14 19 1015.7 1015.2 0.0
19/03:30am 18.7 13.3 10.8 60 4.3 SSE 30 39 16 21 1015.6 1015.1 0.0
19/03:00am 19.1 14.1 10.9 59 4.5 SSE 28 39 15 21 1015.5 1015.0 0.0
19/02:30am 19.5 14.5 10.8 57 4.7 SSE 28 39 15 21 1015.6 1015.1 0.0
19/02:00am 20.0 14.1 11.0 56 4.9 SSE 33 41 18 22 1015.5 1015.0 0.0
19/01:30am 20.6 15.5 10.7 53 5.4 SSE 28 39 15 21 1015.3 1014.8 0.0
19/01:00am 21.9 16.4 10.7 49 6.2 SSE 30 41 16 22 1015.1 1014.6 0.0
19/12:30am 22.7 17.2 10.5 46 6.7 S 30 46 16 25 1015.0 1014.5 0.0
19/12:00am 24.1 19.2 10.0 41 7.8 SSE 26 35 14 19 1014.7 1014.2 0.0
 
Date/Time
CDT
Temp
°C
App
Temp
°C
Dew
Point
Rel
Hum
%
Delta-T
°C
Wind Press
QNH
hPa
Press
MSL
hPa
Rain
since 9 am
mm
Dir
 
Spd
km/h
Gust
km/h
Spd
kts
Gust
kts
18/11:30pm 25.3 20.6 9.2 36 8.8 SSE 24 33 13 18 1014.4 1013.9 0.0
18/11:00pm 27.6 21.7 5.8 25 11.4 S 26 35 14 19 1014.0 1013.5 0.0
18/10:30pm 28.1 23.3 5.6 24 11.7 S 20 30 11 16 1013.6 1013.1 0.0
18/10:00pm 28.5 24.6 5.4 23 12.0 SSW 15 20 8 11 1013.3 1012.8 0.0
18/09:30pm 29.1 24.2 5.2 22 12.5 SSW 20 30 11 16 1013.0 1012.5 0.0
18/09:00pm 29.6 24.8 5.6 22 12.6 SSW 20 30 11 16 1012.9 1012.4 0.0
18/08:30pm 30.3 25.5 5.6 21 13.1 SSW 20 28 11 15 1012.6 1012.1 0.0
18/08:00pm 31.0 25.8 5.4 20 13.5 SSW 22 28 12 15 1012.3 1011.8 0.0
18/07:30pm 31.5 25.8 5.1 19 13.9 SSW 24 35 13 19 1012.0 1011.5 0.0
18/07:00pm 32.3 26.6 5.0 18 14.4 SSW 24 35 13 19 1011.6 1011.1 0.0
18/06:30pm 32.5 26.1 5.1 18 14.6 SSW 28 37 15 20 1011.4 1010.9 0.0
18/06:00pm 33.1 26.8 3.9 16 15.3 SW 26 39 14 21 1011.0 1010.5 0.0
18/05:30pm 33.8 28.6 2.6 14 16.0 SSW 19 30 10 16 1010.9 1010.4 0.0
18/05:00pm 34.0 28.9 2.8 14 16.1 SW 19 33 10 18 1011.0 1010.5 0.0
18/04:30pm 34.1 29.0 2.8 14 16.2 SW 19 39 10 21 1011.1 1010.6 0.0
18/04:00pm 33.6 29.1 4.3 16 15.4 S 17 30 9 16 1011.2 1010.7 0.0
18/03:30pm 34.1 29.1 3.8 15 15.9 WSW 19 30 10 16 1011.4 1010.9 0.0
18/03:00pm 32.9 27.9 3.8 16 15.2 SW 19 33 10 18 1011.5 1011.0 0.0
18/02:30pm 33.0 28.4 3.9 16 15.2 SW 17 30 9 16 1011.6 1011.1 0.0
18/02:00pm 32.8 28.2 3.7 16 15.1 SW 17 28 9 15 1011.7 1011.2 0.0
18/01:30pm 32.4 27.4 3.4 16 15.0 SSW 19 30 10 16 1011.7 1011.2 0.0
18/01:00pm 31.9 26.8 3.0 16 14.8 SW 19 30 10 16 1011.8 1011.3 0.0
18/12:30pm 30.8 25.8 3.8 18 13.9 S 19 30 10 16 1011.8 1011.3 0.0
18/12:00pm 30.2 25.5 3.3 18 13.7 S 17 30 9 16 1011.8 1011.3 0.0
18/11:30am 30.1 26.1 4.7 20 13.2 S 15 24 8 13 1011.7 1011.2 0.0
18/11:00am 29.0 24.6 4.5 21 12.6 S 17 24 9 13 1011.8 1011.3 0.0
18/10:30am 28.1 22.5 5.6 24 11.8 SSE 24 30 13 16 1011.7 1011.2 0.0
18/10:00am 26.8 21.7 6.2 27 10.8 S 22 32 12 17 1011.7 1011.2 0.0
18/09:30am 26.1 21.8 7.2 30 10.0 S 19 24 10 13 1011.6 1011.1 0.0
18/09:00am 24.9 21.1 7.5 33 9.2 S 17 22 9 12 1011.4 1010.9 0.0
18/08:30am 23.7 20.1 8.2 37 8.3 S 17 20 9 11 1011.0 1010.5 0.0
18/08:00am 22.4 19.6 8.5 41 7.4 SSE 13 17 7 9 1010.9 1010.4 0.0
18/07:30am 21.3 18.4 8.2 43 6.9 SSE 13 15 7 8 1010.5 1010.0 0.0
18/07:00am 20.7 17.7 7.7 43 6.7 SSE 13 17 7 9 1010.0 1009.5 0.0
18/06:30am 20.7 18.3 7.0 41 7.0 S 9 13 5 7 1009.8 1009.3 0.0
18/06:00am 20.8 16.7 6.4 39 7.3 S 17 24 9 13 1009.3 1008.7 0.0
18/05:30am 21.1 17.0 6.2 38 7.5 SSW 17 22 9 12 1008.9 1008.3 0.0
18/05:00am 21.5 17.7 5.8 36 7.9 SSW 15 19 8 10 1008.7 1008.1 0.0
18/04:30am 21.9 18.4 5.3 34 8.3 SSW 13 15 7 8 1008.4 1007.8 0.0
18/04:00am 22.5 19.0 5.4 33 8.6 SSW 13 15 7 8 1008.1 1007.5 0.0
18/03:30am 23.2 20.4 5.1 31 9.1 S 9 11 5 6 1008.1 1007.5 0.0
18/03:00am 24.1 21.3 5.0 29 9.6 SSW 9 13 5 7 1008.1 1007.5 0.0
18/02:30am 24.8 21.0 4.0 26 10.4 S 13 17 7 9 1008.0 1007.4 0.0
18/02:00am 25.3 20.6 0.7 20 11.5 SSW 15 19 8 10 1007.9 1007.3 0.0
18/01:30am 23.9 22.0 0.3 21 10.9 CALM 0 0 0 0 1007.5 1006.9 0.0
18/01:00am 24.0 22.1 0.4 21 10.9 CALM 0 0 0 0 1007.5 1006.9 0.0
18/12:30am 24.6 22.5 -0.5 19 11.5 CALM 0 0 0 0 1007.6 1007.0 0.0
18/12:00am 25.6 22.4 -0.5 18 12.0 ESE 6 6 3 3 1007.5 1006.9 0.0
 
Date/Time
CDT
Temp
°C
App
Temp
°C
Dew
Point
Rel
Hum
%
Delta-T
°C
Wind Press
QNH
hPa
Press
MSL
hPa
Rain
since 9 am
mm
Dir
 
Spd
km/h
Gust
km/h
Spd
kts
Gust
kts
17/11:30pm 26.3 23.1 0.9 19 12.1 SSE 7 9 4 5 1007.6 1007.0 0.0
17/11:00pm 27.2 23.5 0.1 17 12.8 S 9 13 5 7 1007.4 1006.8 0.0
17/10:30pm 27.6 23.6 0.4 17 12.9 SSE 11 15 6 8 1007.2 1006.6 0.0
17/10:00pm 28.1 23.6 -0.1 16 13.3 S 13 17 7 9 1007.0 1006.4 0.0
17/09:30pm 28.6 22.7 -0.5 15 13.7 S 20 30 11 16 1006.8 1006.2 0.0
17/09:00pm 29.5 22.7 -1.8 13 14.5 SSW 24 35 13 19 1007.0 1006.4 0.0
17/08:30pm 31.0 25.0 -2.9 11 15.6 SW 19 28 10 15 1006.5 1005.9 0.0
17/08:00pm 31.4 27.0 -2.6 11 15.7 WSW 11 17 6 9 1005.9 1005.3 0.0
17/07:30pm 31.8 26.7 -2.3 11 16.0 WSW 15 20 8 11 1005.3 1004.8 0.0
17/07:00pm 31.8 27.8 -2.3 11 15.9 WSW 9 13 5 7 1005.2 1004.7 0.0
17/06:30pm 32.5 27.6 -3.0 10 16.5 WSW 13 22 7 12 1004.8 1004.3 0.0
17/06:00pm 32.8 28.4 -2.8 10 16.7 WSW 11 17 6 9 1004.7 1004.2 0.0
17/05:30pm 32.4 27.9 -3.1 10 16.5 W 11 19 6 10 1004.9 1004.4 0.0
17/05:00pm 32.3 27.2 -1.9 11 16.1 SW 15 26 8 14 1005.3 1004.8 0.0
17/04:30pm 31.6 27.7 -1.2 12 15.6 NW 9 20 5 11 1006.0 1005.4 0.0
17/04:00pm 30.9 27.0 -1.8 12 15.3 SSE 9 17 5 9 1006.1 1005.5 0.0
17/03:30pm 30.9 25.7 0.3 14 14.9 SE 17 22 9 12 1006.2 1005.6 0.0
17/03:00pm 29.8 25.4 0.4 15 14.2 S 13 28 7 15 1006.8 1006.2 0.0
17/02:30pm 29.1 25.3 1.6 17 13.5 WSW 11 20 6 11 1007.7 1007.1 0.0
17/02:00pm 28.7 24.7 2.8 19 12.9 SW 13 24 7 13 1008.3 1007.7 0.0
17/01:30pm 28.5 23.8 3.4 20 12.7 S 17 33 9 18 1008.6 1008.0 0.0
17/01:00pm 27.0 22.7 3.5 22 11.7 SSE 15 24 8 13 1009.1 1008.5 0.0
17/12:30pm 26.4 21.8 3.6 23 11.4 SSW 17 28 9 15 1009.4 1008.8 0.0
17/12:00pm 25.8 21.3 4.3 25 10.8 SSW 17 28 9 15 1009.9 1009.4 0.0
17/11:30am 24.1 19.7 5.0 29 9.6 S 17 32 9 17 1010.3 1009.8 0.0
17/11:00am 23.6 18.9 6.0 32 9.0 S 20 30 11 16 1010.5 1010.0 0.0
17/10:30am 22.4 17.9 6.2 35 8.3 SSE 19 28 10 15 1010.9 1010.4 0.0
17/10:00am 20.5 15.8 6.1 39 7.2 S 20 28 11 15 1011.2 1010.7 0.0
17/09:30am 20.2 15.7 6.9 42 6.8 SSE 20 32 11 17 1011.2 1010.7 0.0
17/09:00am 19.3 14.4 7.1 45 6.2 SSE 22 30 12 16 1010.9 1010.4 0.0
17/08:30am 18.6 13.1 7.4 48 5.7 SSE 26 33 14 18 1010.8 1010.3 0.0
17/08:00am 17.7 12.6 7.7 52 5.1 SSE 24 30 13 16 1010.7 1010.2 0.0
17/07:30am 16.9 12.6 7.8 55 4.6 SE 20 26 11 14 1010.5 1010.0 0.0
17/07:00am 16.4 12.6 7.6 56 4.4 SSE 17 22 9 12 1010.4 1009.9 0.0
17/06:30am 15.9 11.8 7.9 59 4.0 SSE 19 26 10 14 1009.6 1009.1 0.0
17/06:00am 16.0 11.7 7.7 58 4.2 S 20 28 11 15 1009.0 1008.4 0.0
17/05:30am 16.3 11.2 7.5 56 4.4 S 24 32 13 17 1008.5 1007.9 0.0
17/05:00am 16.6 11.5 7.5 55 4.6 S 24 32 13 17 1008.6 1008.0 0.0
17/04:30am 16.8 12.5 8.0 56 4.5 S 20 28 11 15 1008.6 1008.0 0.0
17/04:00am 17.3 12.0 8.4 56 4.6 S 26 33 14 18 1008.5 1007.9 0.0
17/03:30am 17.6 12.4 9.0 57 4.5 SSE 26 37 14 20 1008.4 1007.8 0.0
17/03:00am 18.1 13.1 9.5 57 4.6 S 26 33 14 18 1008.4 1007.8 0.0
17/02:30am 18.4 13.1 9.7 57 4.6 S 28 37 15 20 1008.5 1007.9 0.0
17/02:00am 18.8 12.8 10.1 57 4.7 S 32 39 17 21 1008.7 1008.1 0.0
17/01:30am 19.3 13.2 10.6 57 4.7 SSE 33 43 18 23 1008.6 1008.0 0.0
17/01:00am 20.0 14.2 10.7 55 5.1 SSE 32 43 17 23 1008.5 1007.9 0.0
17/12:30am 21.1 15.0 10.3 50 5.9 SSE 33 43 18 23 1008.4 1007.8 0.0
17/12:00am 23.4 16.3 5.3 31 9.1 SSW 32 43 17 23 1007.9 1007.3 0.0
 
Date/Time
CDT
Temp
°C
App
Temp
°C
Dew
Point
Rel
Hum
%
Delta-T
°C
Wind Press
QNH
hPa
Press
MSL
hPa
Rain
since 9 am
mm
Dir
 
Spd
km/h
Gust
km/h
Spd
kts
Gust
kts
16/11:30pm 24.2 17.1 5.5 30 9.5 SSW 32 44 17 24 1007.7 1007.1 0.0
16/11:00pm 25.2 18.0 4.9 27 10.3 SSW 32 43 17 23 1007.5 1006.9 0.0
16/10:30pm 25.9 18.7 3.2 23 11.2 SSW 30 44 16 24 1007.3 1006.7 0.0
16/10:00pm 26.7 19.4 4.5 24 11.3 SSW 32 41 17 22 1006.9 1006.3 0.0
16/09:38pm 27.5 20.2 4.5 23 11.7 SSW 32 50 17 27 1006.5 1005.9 0.0
16/09:30pm 27.8 20.6 4.8 23 11.9 SSW 32 41 17 22 1006.3 1005.7 0.0
16/09:00pm 29.3 23.7 7.2 25 12.0 SW 26 35 14 19 1005.8 1005.2 0.0
16/08:30pm 30.1 22.8 4.7 20 13.3 SW 32 43 17 23 1005.1 1004.6 0.0
16/08:00pm 31.0 23.6 6.8 22 13.1 SW 35 46 19 25 1004.7 1004.2 0.0
16/07:30pm 32.1 25.1 8.4 23 13.3 SSW 35 48 19 26 1004.2 1003.7 0.0

Other Formats:

Comma delimited format used in spreadsheet applications
http://www.bom.gov.au/fwo/IDS60801/IDS60801.95658.axf

JavaScript Object Notation format (JSON) in row-major order
http://www.bom.gov.au/fwo/IDS60801/IDS60801.95658.json